sensor_id;sensor_type;location;lat;lon;timestamp;pressure;altitude;pressure_sealevel;temperature;humidity
78411;BME280;67706;51.074;-1.796;2023-07-28T00:01:13;100128.41;;;17.51;93.14
78411;BME280;67706;51.074;-1.796;2023-07-28T00:03:39;100129.00;;;17.53;93.62
78411;BME280;67706;51.074;-1.796;2023-07-28T00:06:05;100127.94;;;17.59;92.90
78411;BME280;67706;51.074;-1.796;2023-07-28T00:08:31;100119.06;;;17.57;92.66
78411;BME280;67706;51.074;-1.796;2023-07-28T00:10:57;100118.50;;;17.60;92.26
78411;BME280;67706;51.074;-1.796;2023-07-28T00:13:23;100120.72;;;17.58;92.41
78411;BME280;67706;51.074;-1.796;2023-07-28T00:15:49;100117.94;;;17.58;92.15
78411;BME280;67706;51.074;-1.796;2023-07-28T00:18:15;100116.00;;;17.58;92.19
78411;BME280;67706;51.074;-1.796;2023-07-28T00:20:43;100121.25;;;17.55;92.56
78411;BME280;67706;51.074;-1.796;2023-07-28T00:23:09;100116.84;;;17.59;91.82
78411;BME280;67706;51.074;-1.796;2023-07-28T00:25:35;100117.34;;;17.56;91.98
78411;BME280;67706;51.074;-1.796;2023-07-28T00:28:01;100122.91;;;17.56;91.59
78411;BME280;67706;51.074;-1.796;2023-07-28T00:30:29;100120.66;;;17.53;91.59
78411;BME280;67706;51.074;-1.796;2023-07-28T00:32:55;100112.72;;;17.39;91.96
78411;BME280;67706;51.074;-1.796;2023-07-28T00:35:21;100112.72;;;17.39;91.99
78411;BME280;67706;51.074;-1.796;2023-07-28T00:37:47;100113.88;;;17.43;91.45
78411;BME280;67706;51.074;-1.796;2023-07-28T00:40:13;100117.00;;;17.25;89.34
78411;BME280;67706;51.074;-1.796;2023-07-28T00:42:39;100121.88;;;17.18;89.86
78411;BME280;67706;51.074;-1.796;2023-07-28T00:45:07;100120.72;;;17.14;91.00
78411;BME280;67706;51.074;-1.796;2023-07-28T00:47:34;100114.34;;;17.14;89.86
78411;BME280;67706;51.074;-1.796;2023-07-28T00:50:00;100119.13;;;17.18;90.19
78411;BME280;67706;51.074;-1.796;2023-07-28T00:52:26;100119.88;;;17.14;90.73
78411;BME280;67706;51.074;-1.796;2023-07-28T00:54:52;100121.31;;;17.16;90.60
78411;BME280;67706;51.074;-1.796;2023-07-28T00:57:18;100117.88;;;17.09;91.00
78411;BME280;67706;51.074;-1.796;2023-07-28T00:59:45;100110.88;;;17.02;91.77
78411;BME280;67706;51.074;-1.796;2023-07-28T01:02:11;100113.56;;;16.97;92.16
78411;BME280;67706;51.074;-1.796;2023-07-28T01:04:38;100111.72;;;17.02;92.35
78411;BME280;67706;51.074;-1.796;2023-07-28T01:07:09;100113.31;;;16.98;92.66
78411;BME280;67706;51.074;-1.796;2023-07-28T01:09:43;100119.31;;;16.90;92.98
78411;BME280;67706;51.074;-1.796;2023-07-28T01:12:12;100110.22;;;16.95;93.10
78411;BME280;67706;51.074;-1.796;2023-07-28T01:14:38;100115.69;;;16.90;93.11
78411;BME280;67706;51.074;-1.796;2023-07-28T01:17:04;100113.50;;;16.92;93.29
78411;BME280;67706;51.074;-1.796;2023-07-28T01:19:30;100101.28;;;16.88;93.57
78411;BME280;67706;51.074;-1.796;2023-07-28T01:22:09;100120.03;;;17.02;92.78
78411;BME280;67706;51.074;-1.796;2023-07-28T01:24:49;100121.19;;;17.06;92.74
78411;BME280;67706;51.074;-1.796;2023-07-28T01:27:19;100124.63;;;17.13;92.32
78411;BME280;67706;51.074;-1.796;2023-07-28T01:29:47;100123.56;;;16.98;93.79
78411;BME280;67706;51.074;-1.796;2023-07-28T01:32:14;100133.88;;;17.02;93.61
78411;BME280;67706;51.074;-1.796;2023-07-28T01:34:41;100118.91;;;17.03;92.75
78411;BME280;67706;51.074;-1.796;2023-07-28T01:37:08;100100.75;;;16.91;93.11
78411;BME280;67706;51.074;-1.796;2023-07-28T01:39:35;100104.34;;;16.91;92.32
78411;BME280;67706;51.074;-1.796;2023-07-28T01:42:02;100117.25;;;17.02;92.10
78411;BME280;67706;51.074;-1.796;2023-07-28T01:44:30;100120.03;;;17.02;91.69
78411;BME280;67706;51.074;-1.796;2023-07-28T01:46:57;100104.16;;;16.98;91.56
78411;BME280;67706;51.074;-1.796;2023-07-28T01:49:24;100109.00;;;17.07;91.65
78411;BME280;67706;51.074;-1.796;2023-07-28T01:51:51;100103.97;;;17.04;91.86
78411;BME280;67706;51.074;-1.796;2023-07-28T01:54:17;100104.75;;;17.00;92.20
78411;BME280;67706;51.074;-1.796;2023-07-28T01:56:44;100108.03;;;16.97;92.64
78411;BME280;67706;51.074;-1.796;2023-07-28T01:59:11;100116.03;;;16.93;93.91
78411;BME280;67706;51.074;-1.796;2023-07-28T02:01:43;100092.97;;;16.88;94.76
78411;BME280;67706;51.074;-1.796;2023-07-28T02:04:12;100118.53;;;16.95;94.17
78411;BME280;67706;51.074;-1.796;2023-07-28T02:06:39;100106.69;;;16.99;93.47
78411;BME280;67706;51.074;-1.796;2023-07-28T02:09:06;100103.84;;;16.94;93.66
78411;BME280;67706;51.074;-1.796;2023-07-28T02:11:33;100093.72;;;16.83;94.23
78411;BME280;67706;51.074;-1.796;2023-07-28T02:14:02;100094.56;;;16.84;94.75
78411;BME280;67706;51.074;-1.796;2023-07-28T02:16:29;100098.22;;;16.89;94.25
78411;BME280;67706;51.074;-1.796;2023-07-28T02:18:59;100102.56;;;17.02;92.65
78411;BME280;67706;51.074;-1.796;2023-07-28T02:21:25;100105.50;;;16.95;93.26
78411;BME280;67706;51.074;-1.796;2023-07-28T02:23:53;100110.28;;;17.00;92.59
78411;BME280;67706;51.074;-1.796;2023-07-28T02:26:20;100106.69;;;16.99;92.53
78411;BME280;67706;51.074;-1.796;2023-07-28T02:28:47;100111.31;;;16.94;93.01
78411;BME280;67706;51.074;-1.796;2023-07-28T02:31:14;100114.94;;;16.94;93.43
78411;BME280;67706;51.074;-1.796;2023-07-28T02:33:43;100108.66;;;16.82;94.48
78411;BME280;67706;51.074;-1.796;2023-07-28T02:36:11;100113.28;;;16.77;93.28
78411;BME280;67706;51.074;-1.796;2023-07-28T02:38:37;100091.06;;;16.72;92.96
78411;BME280;67706;51.074;-1.796;2023-07-28T02:41:04;100111.28;;;16.72;93.51
78411;BME280;67706;51.074;-1.796;2023-07-28T02:43:32;100111.16;;;16.62;94.36
78411;BME280;67706;51.074;-1.796;2023-07-28T02:46:00;100094.44;;;16.40;94.87
78411;BME280;67706;51.074;-1.796;2023-07-28T02:48:27;100095.06;;;16.26;95.16
78411;BME280;67706;51.074;-1.796;2023-07-28T02:50:54;100095.72;;;16.33;94.47
78411;BME280;67706;51.074;-1.796;2023-07-28T02:53:22;100094.88;;;16.32;94.70
78411;BME280;67706;51.074;-1.796;2023-07-28T02:55:52;100086.84;;;16.14;95.00
78411;BME280;67706;51.074;-1.796;2023-07-28T02:58:19;100100.59;;;16.09;95.89
78411;BME280;67706;51.074;-1.796;2023-07-28T03:00:51;100115.19;;;16.05;96.91
78411;BME280;67706;51.074;-1.796;2023-07-28T03:03:20;100111.44;;;16.11;95.98
78411;BME280;67706;51.074;-1.796;2023-07-28T03:05:51;100105.28;;;15.92;96.13
78411;BME280;67706;51.074;-1.796;2023-07-28T03:08:23;100118.53;;;15.90;95.83
78411;BME280;67706;51.074;-1.796;2023-07-28T03:10:50;100116.31;;;15.75;97.02
78411;BME280;67706;51.074;-1.796;2023-07-28T03:13:17;100121.28;;;15.73;97.52
78411;BME280;67706;51.074;-1.796;2023-07-28T03:15:44;100124.97;;;15.79;97.13
78411;BME280;67706;51.074;-1.796;2023-07-28T03:18:11;100116.16;;;15.82;95.90
78411;BME280;67706;51.074;-1.796;2023-07-28T03:20:37;100124.47;;;15.82;96.49
78411;BME280;67706;51.074;-1.796;2023-07-28T03:23:04;100121.03;;;15.75;96.56
78411;BME280;67706;51.074;-1.796;2023-07-28T03:25:33;100128.19;;;15.87;95.94
78411;BME280;67706;51.074;-1.796;2023-07-28T03:28:00;100127.06;;;15.72;96.58
78411;BME280;67706;51.074;-1.796;2023-07-28T03:30:27;100127.78;;;15.67;97.26
78411;BME280;67706;51.074;-1.796;2023-07-28T03:32:54;100118.56;;;15.62;96.84
78411;BME280;67706;51.074;-1.796;2023-07-28T03:35:21;100115.66;;;15.68;97.34
78411;BME280;67706;51.074;-1.796;2023-07-28T03:37:51;100129.56;;;15.73;97.11
78411;BME280;67706;51.074;-1.796;2023-07-28T03:40:18;100133.84;;;15.64;97.77
78411;BME280;67706;51.074;-1.796;2023-07-28T03:42:46;100135.91;;;15.57;98.64
78411;BME280;67706;51.074;-1.796;2023-07-28T03:45:13;100132.81;;;15.54;98.84
78411;BME280;67706;51.074;-1.796;2023-07-28T03:47:40;100136.50;;;15.59;98.36
78411;BME280;67706;51.074;-1.796;2023-07-28T03:50:08;100139.13;;;15.66;97.62
78411;BME280;67706;51.074;-1.796;2023-07-28T03:52:34;100140.34;;;15.58;98.39
78411;BME280;67706;51.074;-1.796;2023-07-28T03:55:01;100135.78;;;15.52;98.60
78411;BME280;67706;51.074;-1.796;2023-07-28T03:57:31;100117.44;;;15.46;98.72
78411;BME280;67706;51.074;-1.796;2023-07-28T04:00:08;100136.38;;;15.54;98.44
78411;BME280;67706;51.074;-1.796;2023-07-28T04:02:38;100131.63;;;15.50;98.32
78411;BME280;67706;51.074;-1.796;2023-07-28T04:05:05;100134.72;;;15.53;98.04
78411;BME280;67706;51.074;-1.796;2023-07-28T04:07:32;100129.53;;;15.57;98.05
78411;BME280;67706;51.074;-1.796;2023-07-28T04:09:59;100128.38;;;15.69;96.76
78411;BME280;67706;51.074;-1.796;2023-07-28T04:12:26;100133.91;;;15.69;96.30
78411;BME280;67706;51.074;-1.796;2023-07-28T04:14:53;100131.88;;;15.65;96.75
78411;BME280;67706;51.074;-1.796;2023-07-28T04:17:22;100116.66;;;15.62;96.95
78411;BME280;67706;51.074;-1.796;2023-07-28T04:19:49;100131.06;;;15.64;96.93
78411;BME280;67706;51.074;-1.796;2023-07-28T04:22:17;100127.94;;;15.61;96.71
78411;BME280;67706;51.074;-1.796;2023-07-28T04:24:46;100132.59;;;15.72;96.15
78411;BME280;67706;51.074;-1.796;2023-07-28T04:27:13;100132.03;;;15.58;96.85
78411;BME280;67706;51.074;-1.796;2023-07-28T04:29:41;100132.03;;;15.58;96.77
78411;BME280;67706;51.074;-1.796;2023-07-28T04:32:08;100135.66;;;15.59;97.33
78411;BME280;67706;51.074;-1.796;2023-07-28T04:34:37;100125.91;;;15.56;98.14
78411;BME280;67706;51.074;-1.796;2023-07-28T04:37:05;100125.84;;;15.51;98.18
78411;BME280;67706;51.074;-1.796;2023-07-28T04:39:33;100123.81;;;15.47;98.21
78411;BME280;67706;51.074;-1.796;2023-07-28T04:42:00;100133.53;;;15.49;98.34
78411;BME280;67706;51.074;-1.796;2023-07-28T04:44:27;100136.31;;;15.49;98.31
78411;BME280;67706;51.074;-1.796;2023-07-28T04:46:54;100148.81;;;15.52;98.71
78411;BME280;67706;51.074;-1.796;2023-07-28T04:49:23;100130.19;;;15.47;98.99
78411;BME280;67706;51.074;-1.796;2023-07-28T04:51:51;100135.56;;;15.42;98.87
78411;BME280;67706;51.074;-1.796;2023-07-28T04:54:20;100142.44;;;15.51;98.73
78411;BME280;67706;51.074;-1.796;2023-07-28T04:56:48;100136.91;;;15.51;98.74
78411;BME280;67706;51.074;-1.796;2023-07-28T04:59:18;100129.50;;;15.68;97.26
78411;BME280;67706;51.074;-1.796;2023-07-28T05:01:45;100124.88;;;15.74;96.94
78411;BME280;67706;51.074;-1.796;2023-07-28T05:04:14;100134.47;;;15.83;96.61
78411;BME280;67706;51.074;-1.796;2023-07-28T05:06:44;100126.66;;;15.80;96.13
78411;BME280;67706;51.074;-1.796;2023-07-28T05:09:12;100139.16;;;15.82;96.25
78411;BME280;67706;51.074;-1.796;2023-07-28T05:11:42;100143.34;;;15.85;96.73
78411;BME280;67706;51.074;-1.796;2023-07-28T05:14:12;100116.47;;;15.69;97.09
78411;BME280;67706;51.074;-1.796;2023-07-28T05:16:39;100128.50;;;15.74;96.08
78411;BME280;67706;51.074;-1.796;2023-07-28T05:19:06;100139.63;;;15.79;95.99
78411;BME280;67706;51.074;-1.796;2023-07-28T05:21:35;100129.09;;;15.76;95.61
78411;BME280;67706;51.074;-1.796;2023-07-28T05:24:02;100147.00;;;15.74;96.20
78411;BME280;67706;51.074;-1.796;2023-07-28T05:26:30;100134.63;;;15.76;95.85
78411;BME280;67706;51.074;-1.796;2023-07-28T05:28:57;100129.50;;;15.85;95.08
78411;BME280;67706;51.074;-1.796;2023-07-28T05:31:24;100130.69;;;15.89;95.25
78411;BME280;67706;51.074;-1.796;2023-07-28T05:33:51;100133.63;;;15.99;95.25
78411;BME280;67706;51.074;-1.796;2023-07-28T05:36:19;100123.25;;;16.06;94.28
78411;BME280;67706;51.074;-1.796;2023-07-28T05:38:46;100135.66;;;16.20;93.72
78411;BME280;67706;51.074;-1.796;2023-07-28T05:41:13;100133.31;;;16.29;92.36
78411;BME280;67706;51.074;-1.796;2023-07-28T05:43:44;100137.72;;;16.46;91.34
78411;BME280;67706;51.074;-1.796;2023-07-28T05:46:11;100147.06;;;16.57;91.39
78411;BME280;67706;51.074;-1.796;2023-07-28T05:48:39;100144.69;;;16.65;91.27
78411;BME280;67706;51.074;-1.796;2023-07-28T05:51:09;100135.63;;;16.70;91.42
78411;BME280;67706;51.074;-1.796;2023-07-28T05:53:36;100146.22;;;16.73;90.19
78411;BME280;67706;51.074;-1.796;2023-07-28T05:56:03;100123.66;;;16.64;90.58
78411;BME280;67706;51.074;-1.796;2023-07-28T05:58:30;100128.31;;;16.81;89.98
78411;BME280;67706;51.074;-1.796;2023-07-28T06:01:03;100122.13;;;16.95;89.46
78411;BME280;67706;51.074;-1.796;2023-07-28T06:03:30;100130.78;;;17.20;88.52
78411;BME280;67706;51.074;-1.796;2023-07-28T06:05:59;100130.91;;;17.30;87.09
78411;BME280;67706;51.074;-1.796;2023-07-28T06:08:26;100135.66;;;17.35;87.37
78411;BME280;67706;51.074;-1.796;2023-07-28T06:10:53;100127.25;;;17.25;88.01
78411;BME280;67706;51.074;-1.796;2023-07-28T06:13:22;100127.56;;;17.28;88.13
78411;BME280;67706;51.074;-1.796;2023-07-28T06:15:49;100117.78;;;17.21;88.11
78411;BME280;67706;51.074;-1.796;2023-07-28T06:18:24;100129.25;;;17.29;87.35
78411;BME280;67706;51.074;-1.796;2023-07-28T06:20:51;100141.22;;;17.35;87.76
78411;BME280;67706;51.074;-1.796;2023-07-28T06:23:18;100139.38;;;17.40;86.61
78411;BME280;67706;51.074;-1.796;2023-07-28T06:25:47;100129.84;;;17.36;86.39
78411;BME280;67706;51.074;-1.796;2023-07-28T06:28:14;100142.31;;;17.56;86.26
78411;BME280;67706;51.074;-1.796;2023-07-28T06:30:42;100144.44;;;17.48;85.30
78411;BME280;67706;51.074;-1.796;2023-07-28T06:33:09;100138.81;;;17.43;86.25
78411;BME280;67706;51.074;-1.796;2023-07-28T06:35:38;100149.28;;;17.58;86.28
78411;BME280;67706;51.074;-1.796;2023-07-28T06:38:04;100147.75;;;17.67;85.56
78411;BME280;67706;51.074;-1.796;2023-07-28T06:40:31;100159.09;;;17.66;85.46
78411;BME280;67706;51.074;-1.796;2023-07-28T06:42:58;100158.19;;;17.60;85.15
78411;BME280;67706;51.074;-1.796;2023-07-28T06:45:24;100155.22;;;17.67;85.83
78411;BME280;67706;51.074;-1.796;2023-07-28T06:47:51;100161.03;;;17.65;85.29
78411;BME280;67706;51.074;-1.796;2023-07-28T06:50:18;100162.38;;;17.63;85.21
78411;BME280;67706;51.074;-1.796;2023-07-28T06:52:46;100167.34;;;17.61;85.81
78411;BME280;67706;51.074;-1.796;2023-07-28T06:55:15;100167.41;;;17.44;86.23
78411;BME280;67706;51.074;-1.796;2023-07-28T06:57:44;100171.69;;;17.52;86.11
78411;BME280;67706;51.074;-1.796;2023-07-28T07:00:15;100179.50;;;17.55;85.80
78411;BME280;67706;51.074;-1.796;2023-07-28T07:02:43;100173.38;;;17.53;86.64
78411;BME280;67706;51.074;-1.796;2023-07-28T07:05:11;100180.91;;;17.57;86.26
78411;BME280;67706;51.074;-1.796;2023-07-28T07:07:39;100182.09;;;17.66;85.83
78411;BME280;67706;51.074;-1.796;2023-07-28T07:10:08;100183.72;;;17.62;85.48
78411;BME280;67706;51.074;-1.796;2023-07-28T07:12:36;100173.78;;;17.44;86.31
78411;BME280;67706;51.074;-1.796;2023-07-28T07:15:07;100180.09;;;17.62;86.72
78411;BME280;67706;51.074;-1.796;2023-07-28T07:17:34;100185.78;;;17.72;86.23
78411;BME280;67706;51.074;-1.796;2023-07-28T07:20:01;100182.00;;;17.83;85.96
78411;BME280;67706;51.074;-1.796;2023-07-28T07:22:28;100180.81;;;17.74;85.64
78411;BME280;67706;51.074;-1.796;2023-07-28T07:24:55;100178.63;;;17.76;86.84
78411;BME280;67706;51.074;-1.796;2023-07-28T07:27:25;100182.28;;;17.81;86.22
78411;BME280;67706;51.074;-1.796;2023-07-28T07:29:51;100186.50;;;17.89;85.63
78411;BME280;67706;51.074;-1.796;2023-07-28T07:32:18;100186.06;;;17.97;85.89
78411;BME280;67706;51.074;-1.796;2023-07-28T07:34:45;100186.44;;;18.05;84.65
78411;BME280;67706;51.074;-1.796;2023-07-28T07:37:12;100185.13;;;18.13;83.93
78411;BME280;67706;51.074;-1.796;2023-07-28T07:39:38;100192.59;;;18.12;83.85
78411;BME280;67706;51.074;-1.796;2023-07-28T07:42:06;100182.41;;;18.18;85.12
78411;BME280;67706;51.074;-1.796;2023-07-28T07:44:35;100181.94;;;18.31;83.47
78411;BME280;67706;51.074;-1.796;2023-07-28T07:47:11;100179.63;;;18.50;83.11
78411;BME280;67706;51.074;-1.796;2023-07-28T07:49:38;100175.19;;;18.49;81.34
78411;BME280;67706;51.074;-1.796;2023-07-28T07:52:06;100180.31;;;18.62;79.98
78411;BME280;67706;51.074;-1.796;2023-07-28T07:54:33;100181.63;;;18.54;80.06
78411;BME280;67706;51.074;-1.796;2023-07-28T07:57:00;100184.78;;;18.41;81.51
78411;BME280;67706;51.074;-1.796;2023-07-28T07:59:27;100178.16;;;18.42;80.67
78411;BME280;67706;51.074;-1.796;2023-07-28T08:01:57;100182.78;;;18.32;81.68
78411;BME280;67706;51.074;-1.796;2023-07-28T08:04:25;100183.53;;;18.22;83.59
78411;BME280;67706;51.074;-1.796;2023-07-28T08:06:53;100200.22;;;18.27;84.12
78411;BME280;67706;51.074;-1.796;2023-07-28T08:09:20;100194.69;;;18.27;84.23
78411;BME280;67706;51.074;-1.796;2023-07-28T08:11:47;100198.03;;;18.29;84.29
78411;BME280;67706;51.074;-1.796;2023-07-28T08:14:14;100201.34;;;18.26;84.56
78411;BME280;67706;51.074;-1.796;2023-07-28T08:16:41;100207.03;;;18.09;86.62
78411;BME280;67706;51.074;-1.796;2023-07-28T08:19:09;100214.78;;;18.07;88.56
78411;BME280;67706;51.074;-1.796;2023-07-28T08:21:36;100208.06;;;18.03;90.64
78411;BME280;67706;51.074;-1.796;2023-07-28T08:24:03;100213.75;;;17.92;90.65
78411;BME280;67706;51.074;-1.796;2023-07-28T08:26:30;100211.81;;;17.92;89.45
78411;BME280;67706;51.074;-1.796;2023-07-28T08:28:57;100212.31;;;17.84;90.57
78411;BME280;67706;51.074;-1.796;2023-07-28T08:31:23;100218.28;;;17.76;91.90
78411;BME280;67706;51.074;-1.796;2023-07-28T08:33:50;100224.28;;;17.68;93.21
78411;BME280;67706;51.074;-1.796;2023-07-28T08:36:18;100217.56;;;17.86;94.29
78411;BME280;67706;51.074;-1.796;2023-07-28T08:38:45;100223.91;;;18.08;92.18
78411;BME280;67706;51.074;-1.796;2023-07-28T08:41:12;100211.91;;;18.29;88.60
78411;BME280;67706;51.074;-1.796;2023-07-28T08:43:39;100215.72;;;18.50;87.41
78411;BME280;67706;51.074;-1.796;2023-07-28T08:46:06;100215.16;;;18.79;83.90
78411;BME280;67706;51.074;-1.796;2023-07-28T08:48:33;100207.66;;;18.80;82.41
78411;BME280;67706;51.074;-1.796;2023-07-28T08:51:00;100211.78;;;18.72;81.41
78411;BME280;67706;51.074;-1.796;2023-07-28T08:53:28;100206.28;;;18.82;80.69
78411;BME280;67706;51.074;-1.796;2023-07-28T08:55:54;100214.34;;;18.84;79.64
78411;BME280;67706;51.074;-1.796;2023-07-28T08:58:22;100206.22;;;19.14;79.58
78411;BME280;67706;51.074;-1.796;2023-07-28T09:00:50;100202.09;;;19.22;78.44
78411;BME280;67706;51.074;-1.796;2023-07-28T09:03:18;100207.22;;;19.40;78.10
78411;BME280;67706;51.074;-1.796;2023-07-28T09:05:45;100207.53;;;19.48;77.48
78411;BME280;67706;51.074;-1.796;2023-07-28T09:08:12;100205.88;;;19.52;75.79
78411;BME280;67706;51.074;-1.796;2023-07-28T09:10:45;100205.56;;;19.44;76.74
78411;BME280;67706;51.074;-1.796;2023-07-28T09:13:12;100212.41;;;19.83;74.96
78411;BME280;67706;51.074;-1.796;2023-07-28T09:15:39;100206.34;;;20.06;72.13
78411;BME280;67706;51.074;-1.796;2023-07-28T09:18:08;100207.16;;;20.07;72.22
78411;BME280;67706;51.074;-1.796;2023-07-28T09:20:36;100212.44;;;20.03;72.35
78411;BME280;67706;51.074;-1.796;2023-07-28T09:23:04;100207.75;;;20.14;72.02
78411;BME280;67706;51.074;-1.796;2023-07-28T09:25:34;100210.50;;;20.09;71.76
78411;BME280;67706;51.074;-1.796;2023-07-28T09:28:02;100211.88;;;19.91;71.46
78411;BME280;67706;51.074;-1.796;2023-07-28T09:30:44;100214.09;;;19.89;72.37
78411;BME280;67706;51.074;-1.796;2023-07-28T09:33:11;100215.75;;;19.85;73.26
78411;BME280;67706;51.074;-1.796;2023-07-28T09:35:48;100217.91;;;19.68;73.73
78411;BME280;67706;51.074;-1.796;2023-07-28T09:38:15;100214.03;;;19.74;74.58
78411;BME280;67706;51.074;-1.796;2023-07-28T09:40:43;100214.09;;;19.94;74.17
78411;BME280;67706;51.074;-1.796;2023-07-28T09:43:12;100211.34;;;20.09;73.84
78411;BME280;67706;51.074;-1.796;2023-07-28T09:45:39;100219.50;;;20.26;73.86
78411;BME280;67706;51.074;-1.796;2023-07-28T09:48:07;100212.53;;;20.38;71.44
78411;BME280;67706;51.074;-1.796;2023-07-28T09:50:40;100205.31;;;20.47;71.66
78411;BME280;67706;51.074;-1.796;2023-07-28T09:53:09;100205.31;;;20.52;70.17
78411;BME280;67706;51.074;-1.796;2023-07-28T09:55:38;100206.44;;;20.67;68.66
78411;BME280;67706;51.074;-1.796;2023-07-28T09:58:09;100204.72;;;20.96;67.73
78411;BME280;67706;51.074;-1.796;2023-07-28T10:00:38;100200.25;;;21.10;66.15
78411;BME280;67706;51.074;-1.796;2023-07-28T10:03:06;100217.00;;;20.90;65.84
78411;BME280;67706;51.074;-1.796;2023-07-28T10:05:34;100213.66;;;20.57;65.99
78411;BME280;67706;51.074;-1.796;2023-07-28T10:08:03;100215.63;;;20.52;67.03
78411;BME280;67706;51.074;-1.796;2023-07-28T10:10:31;100209.47;;;20.35;67.30
78411;BME280;67706;51.074;-1.796;2023-07-28T10:12:58;100215.63;;;20.52;68.09
78411;BME280;67706;51.074;-1.796;2023-07-28T10:15:30;100211.44;;;20.70;66.83
78411;BME280;67706;51.074;-1.796;2023-07-28T10:17:58;100210.88;;;20.68;66.06
78411;BME280;67706;51.074;-1.796;2023-07-28T10:20:33;100214.78;;;20.77;64.02
78411;BME280;67706;51.074;-1.796;2023-07-28T10:23:09;100212.56;;;20.64;64.58
78411;BME280;67706;51.074;-1.796;2023-07-28T10:25:39;100217.00;;;20.70;63.35
78411;BME280;67706;51.074;-1.796;2023-07-28T10:28:07;100218.13;;;20.53;63.58
78411;BME280;67706;51.074;-1.796;2023-07-28T10:30:51;100213.97;;;20.61;64.02
78411;BME280;67706;51.074;-1.796;2023-07-28T10:33:28;100219.22;;;20.42;63.21
78411;BME280;67706;51.074;-1.796;2023-07-28T10:35:57;100211.72;;;20.53;62.90
78411;BME280;67706;51.074;-1.796;2023-07-28T10:38:34;100214.50;;;20.48;63.75
78411;BME280;67706;51.074;-1.796;2023-07-28T10:41:07;100221.47;;;20.35;63.56
78411;BME280;67706;51.074;-1.796;2023-07-28T10:43:34;100217.56;;;20.51;64.29
78411;BME280;67706;51.074;-1.796;2023-07-28T10:46:01;100216.19;;;20.54;65.22
78411;BME280;67706;51.074;-1.796;2023-07-28T10:48:29;100214.22;;;20.39;65.12
78411;BME280;67706;51.074;-1.796;2023-07-28T10:50:56;100210.34;;;20.50;64.48
78411;BME280;67706;51.074;-1.796;2023-07-28T10:53:23;100212.28;;;20.60;64.32
78411;BME280;67706;51.074;-1.796;2023-07-28T10:55:50;100203.91;;;20.85;64.11
78411;BME280;67706;51.074;-1.796;2023-07-28T10:58:16;100212.25;;;20.95;63.31
78411;BME280;67706;51.074;-1.796;2023-07-28T11:00:43;100211.72;;;21.03;61.53
78411;BME280;67706;51.074;-1.796;2023-07-28T11:03:10;100205.59;;;21.06;60.54
78411;BME280;67706;51.074;-1.796;2023-07-28T11:05:38;100208.66;;;21.05;60.90
78411;BME280;67706;51.074;-1.796;2023-07-28T11:08:05;100204.13;;;21.29;59.73
78411;BME280;67706;51.074;-1.796;2023-07-28T11:10:34;100206.06;;;21.33;58.63
78411;BME280;67706;51.074;-1.796;2023-07-28T11:13:03;100203.81;;;21.41;59.15
78411;BME280;67706;51.074;-1.796;2023-07-28T11:15:30;100201.00;;;21.51;58.49
78411;BME280;67706;51.074;-1.796;2023-07-28T11:17:58;100207.22;;;20.97;57.97
78411;BME280;67706;51.074;-1.796;2023-07-28T11:20:27;100201.38;;;20.94;58.21
78411;BME280;67706;51.074;-1.796;2023-07-28T11:22:56;100196.38;;;21.01;59.70
78411;BME280;67706;51.074;-1.796;2023-07-28T11:25:25;100200.56;;;20.98;59.19
78411;BME280;67706;51.074;-1.796;2023-07-28T11:27:52;100194.31;;;21.47;59.54
78411;BME280;67706;51.074;-1.796;2023-07-28T11:30:19;100189.78;;;21.61;58.03
78411;BME280;67706;51.074;-1.796;2023-07-28T11:32:48;100192.88;;;21.59;59.06
78411;BME280;67706;51.074;-1.796;2023-07-28T11:35:17;100199.00;;;21.51;58.99
78411;BME280;67706;51.074;-1.796;2023-07-28T11:37:46;100198.53;;;21.29;59.65
78411;BME280;67706;51.074;-1.796;2023-07-28T11:40:17;100200.75;;;21.37;58.69
78411;BME280;67706;51.074;-1.796;2023-07-28T11:42:45;100192.88;;;21.49;58.91
78411;BME280;67706;51.074;-1.796;2023-07-28T11:45:15;100202.94;;;21.45;58.88
78411;BME280;67706;51.074;-1.796;2023-07-28T11:47:57;100194.50;;;21.65;59.61
78411;BME280;67706;51.074;-1.796;2023-07-28T11:50:26;100189.38;;;21.87;57.75
78411;BME280;67706;51.074;-1.796;2023-07-28T11:52:54;100188.69;;;22.10;57.99
78411;BME280;67706;51.074;-1.796;2023-07-28T11:55:22;100193.81;;;22.37;57.76
78411;BME280;67706;51.074;-1.796;2023-07-28T11:57:50;100183.19;;;22.73;57.29
78411;BME280;67706;51.074;-1.796;2023-07-28T12:00:17;100185.19;;;22.72;56.58
78411;BME280;67706;51.074;-1.796;2023-07-28T12:03:00;100191.72;;;22.58;57.27
78411;BME280;67706;51.074;-1.796;2023-07-28T12:05:29;100193.63;;;22.24;56.47
78411;BME280;67706;51.074;-1.796;2023-07-28T12:07:55;100190.75;;;22.34;56.74
78411;BME280;67706;51.074;-1.796;2023-07-28T12:10:24;100185.00;;;22.20;57.52
78411;BME280;67706;51.074;-1.796;2023-07-28T12:12:50;100200.56;;;22.31;58.44
78411;BME280;67706;51.074;-1.796;2023-07-28T12:15:22;100206.44;;;22.30;58.55
78411;BME280;67706;51.074;-1.796;2023-07-28T12:18:07;100199.44;;;22.32;58.19
78411;BME280;67706;51.074;-1.796;2023-07-28T12:20:36;100193.56;;;22.34;58.48
78411;BME280;67706;51.074;-1.796;2023-07-28T12:23:04;100198.50;;;22.47;58.32
78411;BME280;67706;51.074;-1.796;2023-07-28T12:25:33;100198.41;;;22.62;56.70
78411;BME280;67706;51.074;-1.796;2023-07-28T12:28:02;100194.91;;;22.75;57.76
78411;BME280;67706;51.074;-1.796;2023-07-28T12:30:29;100206.34;;;22.45;57.59
78411;BME280;67706;51.074;-1.796;2023-07-28T12:32:56;100200.84;;;22.30;57.96
78411;BME280;67706;51.074;-1.796;2023-07-28T12:35:23;100199.31;;;22.08;58.37
78411;BME280;67706;51.074;-1.796;2023-07-28T12:37:50;100196.59;;;21.98;59.01
78411;BME280;67706;51.074;-1.796;2023-07-28T12:40:17;100203.25;;;22.07;59.97
78411;BME280;67706;51.074;-1.796;2023-07-28T12:42:46;100206.91;;;22.03;60.79
78411;BME280;67706;51.074;-1.796;2023-07-28T12:45:13;100204.38;;;22.06;59.88